Huvudsida
METAR-TAF:

METAR-TAF

Flygplatser :

Ponta Delgada, Azorerna, Portugal

latitud: 37-44N, longitud: 025-42W, höjd: 71 m

Aktuellt väderrapport

Denna rapport gjordes för 35 minuter sedan, klockan 21:00 UTC
Vind 9 kt från nord/nordost, varierande mellan nord och ost/nordost
Temperatur 23°C
Fuktighet 78%
Tryck 1026 hPa
Sikt 10 km eller mer
Få moln på en höjd av 1800 ft

METAR: LPPD 192100Z 03009KT 360V060 9999 FEW018 23/19 Q1026

Tid: 21:35 (21:35 UTC)

Väderprognos

Denna rapport gjordes för 4 timmar och 35 minuter sedan, klockan 17:00 UTC
Prognos gäller från 19 kl. 18 UTC till 20 kl. 18 UTC
Vind 12 kt från nord/nordost
Sikt 10 km eller mer
Få moln på en höjd av 2500 ft
Temporärt
från 19 kl. 18 UTC till 20 kl. 18 UTC
Spridda moln på en höjd av 2000 ft
Spridda moln på en höjd av 4000 ft

TAF: LPPD 191700Z 1918/2018 03012KT 9999 FEW025 TEMPO 1918/2018 SCT020 SCT040

Aktuella väderrapporter och prognoser från 4000 flygplatser (METAR- och TAF-rapporter).

De tillgängliga stationerna syns som gula och röda prickar på kartan.

För musen över prickarna för att se namnen på stationerna.

Klicka sedan för att få väderrapporter och prognoser.

För att ändra kartan: Klicka på de gröna knapparna med ett svart kors på för att zooma in; den gröna knappen med ett streck på för att zooma ut; eller på de gröna pilarna för angränsande kartor.


METAR-TAF: